sensor_id;sensor_type;location;lat;lon;timestamp;temperature;humidity
52739;DHT22;52466;40.122;18.318;2022-10-15T00:01:24;15.40;92.40
52739;DHT22;52466;40.122;18.318;2022-10-15T00:04:32;15.30;92.40
52739;DHT22;52466;40.122;18.318;2022-10-15T00:07:40;15.30;92.20
52739;DHT22;52466;40.122;18.318;2022-10-15T00:10:48;15.20;92.30
52739;DHT22;52466;40.122;18.318;2022-10-15T00:13:57;15.20;92.40
52739;DHT22;52466;40.122;18.318;2022-10-15T00:17:06;15.20;92.50
52739;DHT22;52466;40.122;18.318;2022-10-15T00:20:13;15.20;92.70
52739;DHT22;52466;40.122;18.318;2022-10-15T00:23:21;15.20;92.50
52739;DHT22;52466;40.122;18.318;2022-10-15T00:26:30;15.20;92.50
52739;DHT22;52466;40.122;18.318;2022-10-15T00:29:38;15.20;92.30
52739;DHT22;52466;40.122;18.318;2022-10-15T00:32:45;15.20;92.50
52739;DHT22;52466;40.122;18.318;2022-10-15T00:36:01;15.10;92.60
52739;DHT22;52466;40.122;18.318;2022-10-15T00:39:09;15.20;92.50
52739;DHT22;52466;40.122;18.318;2022-10-15T00:42:17;15.20;92.50
52739;DHT22;52466;40.122;18.318;2022-10-15T00:45:25;15.10;92.50
52739;DHT22;52466;40.122;18.318;2022-10-15T00:48:33;15.10;92.60
52739;DHT22;52466;40.122;18.318;2022-10-15T00:51:45;15.10;92.60
52739;DHT22;52466;40.122;18.318;2022-10-15T00:55:02;15.00;92.80
52739;DHT22;52466;40.122;18.318;2022-10-15T00:58:15;15.00;92.80
52739;DHT22;52466;40.122;18.318;2022-10-15T01:01:24;15.00;92.90
52739;DHT22;52466;40.122;18.318;2022-10-15T01:04:32;15.00;92.90
52739;DHT22;52466;40.122;18.318;2022-10-15T01:07:41;15.00;92.90
52739;DHT22;52466;40.122;18.318;2022-10-15T01:14:27;15.00;93.00
52739;DHT22;52466;40.122;18.318;2022-10-15T01:18:07;14.90;93.00
52739;DHT22;52466;40.122;18.318;2022-10-15T01:27:45;14.90;93.10
52739;DHT22;52466;40.122;18.318;2022-10-15T01:31:09;14.80;93.00
52739;DHT22;52466;40.122;18.318;2022-10-15T01:41:28;14.80;93.00
52739;DHT22;52466;40.122;18.318;2022-10-15T01:44:43;14.80;93.00
52739;DHT22;52466;40.122;18.318;2022-10-15T01:48:21;14.70;93.00
52739;DHT22;52466;40.122;18.318;2022-10-15T01:51:34;14.70;92.90
52739;DHT22;52466;40.122;18.318;2022-10-15T01:54:46;14.70;92.80
52739;DHT22;52466;40.122;18.318;2022-10-15T01:57:56;14.60;92.30
52739;DHT22;52466;40.122;18.318;2022-10-15T02:01:05;14.60;92.40
52739;DHT22;52466;40.122;18.318;2022-10-15T02:04:30;14.60;92.50
52739;DHT22;52466;40.122;18.318;2022-10-15T02:07:54;14.60;92.50
52739;DHT22;52466;40.122;18.318;2022-10-15T02:11:16;14.60;92.50
52739;DHT22;52466;40.122;18.318;2022-10-15T02:15:11;14.60;92.50
52739;DHT22;52466;40.122;18.318;2022-10-15T02:18:40;14.60;92.30
52739;DHT22;52466;40.122;18.318;2022-10-15T02:21:58;14.50;92.30
52739;DHT22;52466;40.122;18.318;2022-10-15T02:25:14;14.50;92.30
52739;DHT22;52466;40.122;18.318;2022-10-15T02:28:24;14.40;92.30
52739;DHT22;52466;40.122;18.318;2022-10-15T02:31:34;14.50;92.40
52739;DHT22;52466;40.122;18.318;2022-10-15T02:34:44;14.50;92.30
52739;DHT22;52466;40.122;18.318;2022-10-15T02:37:53;14.40;92.20
52739;DHT22;52466;40.122;18.318;2022-10-15T02:41:04;14.30;92.30
52739;DHT22;52466;40.122;18.318;2022-10-15T02:44:13;14.30;92.40
52739;DHT22;52466;40.122;18.318;2022-10-15T02:47:21;14.30;92.50
52739;DHT22;52466;40.122;18.318;2022-10-15T02:50:29;14.40;92.50
52739;DHT22;52466;40.122;18.318;2022-10-15T02:53:37;14.30;92.30
52739;DHT22;52466;40.122;18.318;2022-10-15T02:56:44;14.30;92.30
52739;DHT22;52466;40.122;18.318;2022-10-15T02:59:55;14.20;92.50
52739;DHT22;52466;40.122;18.318;2022-10-15T03:03:03;14.20;92.60
52739;DHT22;52466;40.122;18.318;2022-10-15T03:06:11;14.30;92.60
52739;DHT22;52466;40.122;18.318;2022-10-15T03:09:19;14.30;92.50
52739;DHT22;52466;40.122;18.318;2022-10-15T03:12:27;14.30;92.30
52739;DHT22;52466;40.122;18.318;2022-10-15T03:15:35;14.30;92.40
52739;DHT22;52466;40.122;18.318;2022-10-15T03:18:43;14.30;92.40
52739;DHT22;52466;40.122;18.318;2022-10-15T03:21:53;14.30;92.40
52739;DHT22;52466;40.122;18.318;2022-10-15T03:25:07;14.30;92.20
52739;DHT22;52466;40.122;18.318;2022-10-15T03:28:15;14.30;92.20
52739;DHT22;52466;40.122;18.318;2022-10-15T03:31:23;14.30;92.30
52739;DHT22;52466;40.122;18.318;2022-10-15T03:34:34;14.20;92.40
52739;DHT22;52466;40.122;18.318;2022-10-15T03:37:43;14.20;92.40
52739;DHT22;52466;40.122;18.318;2022-10-15T03:40:51;14.20;92.30
52739;DHT22;52466;40.122;18.318;2022-10-15T03:44:15;14.20;92.40
52739;DHT22;52466;40.122;18.318;2022-10-15T03:47:33;14.20;92.50
52739;DHT22;52466;40.122;18.318;2022-10-15T03:50:42;14.20;92.30
52739;DHT22;52466;40.122;18.318;2022-10-15T03:53:50;14.20;92.30
52739;DHT22;52466;40.122;18.318;2022-10-15T03:56:58;14.10;92.20
52739;DHT22;52466;40.122;18.318;2022-10-15T04:00:11;14.10;92.40
52739;DHT22;52466;40.122;18.318;2022-10-15T04:03:22;14.10;92.40
52739;DHT22;52466;40.122;18.318;2022-10-15T04:06:31;14.20;92.30
52739;DHT22;52466;40.122;18.318;2022-10-15T04:09:45;14.10;92.40
52739;DHT22;52466;40.122;18.318;2022-10-15T04:13:09;14.10;92.40
52739;DHT22;52466;40.122;18.318;2022-10-15T04:16:17;14.10;92.50
52739;DHT22;52466;40.122;18.318;2022-10-15T04:19:25;14.10;92.20
52739;DHT22;52466;40.122;18.318;2022-10-15T04:22:37;14.10;92.10
52739;DHT22;52466;40.122;18.318;2022-10-15T04:25:45;14.10;92.30
52739;DHT22;52466;40.122;18.318;2022-10-15T04:28:53;14.10;92.40
52739;DHT22;52466;40.122;18.318;2022-10-15T04:32:02;14.00;92.70
52739;DHT22;52466;40.122;18.318;2022-10-15T04:35:10;14.00;92.70
52739;DHT22;52466;40.122;18.318;2022-10-15T04:38:36;14.00;92.60
52739;DHT22;52466;40.122;18.318;2022-10-15T04:41:44;14.10;92.40
52739;DHT22;52466;40.122;18.318;2022-10-15T04:44:56;14.10;92.40
52739;DHT22;52466;40.122;18.318;2022-10-15T04:48:04;14.00;92.40
52739;DHT22;52466;40.122;18.318;2022-10-15T04:51:15;14.00;92.40
52739;DHT22;52466;40.122;18.318;2022-10-15T04:54:43;14.10;92.40
52739;DHT22;52466;40.122;18.318;2022-10-15T04:57:50;14.10;92.20
52739;DHT22;52466;40.122;18.318;2022-10-15T05:01:08;14.10;91.90
52739;DHT22;52466;40.122;18.318;2022-10-15T05:04:35;14.10;91.70
52739;DHT22;52466;40.122;18.318;2022-10-15T05:07:43;14.00;91.60
52739;DHT22;52466;40.122;18.318;2022-10-15T05:10:51;14.10;91.70
52739;DHT22;52466;40.122;18.318;2022-10-15T05:13:59;14.20;91.40
52739;DHT22;52466;40.122;18.318;2022-10-15T05:17:07;14.10;91.20
52739;DHT22;52466;40.122;18.318;2022-10-15T05:20:17;14.30;91.00
52739;DHT22;52466;40.122;18.318;2022-10-15T05:23:26;14.30;90.70
52739;DHT22;52466;40.122;18.318;2022-10-15T05:26:47;14.30;90.60
52739;DHT22;52466;40.122;18.318;2022-10-15T05:29:57;14.40;90.20
52739;DHT22;52466;40.122;18.318;2022-10-15T05:33:21;14.30;90.30
52739;DHT22;52466;40.122;18.318;2022-10-15T05:36:31;14.50;89.80
52739;DHT22;52466;40.122;18.318;2022-10-15T05:39:43;14.70;89.10
52739;DHT22;52466;40.122;18.318;2022-10-15T05:42:51;15.00;87.80
52739;DHT22;52466;40.122;18.318;2022-10-15T05:46:00;15.20;87.10
52739;DHT22;52466;40.122;18.318;2022-10-15T05:49:08;15.70;85.40
52739;DHT22;52466;40.122;18.318;2022-10-15T05:52:23;18.30;79.00
52739;DHT22;52466;40.122;18.318;2022-10-15T05:55:47;25.50;52.80
52739;DHT22;52466;40.122;18.318;2022-10-15T05:58:55;26.70;46.60
52739;DHT22;52466;40.122;18.318;2022-10-15T06:02:04;26.70;45.90
52739;DHT22;52466;40.122;18.318;2022-10-15T06:05:12;28.20;42.30
52739;DHT22;52466;40.122;18.318;2022-10-15T06:08:20;28.70;40.40
52739;DHT22;52466;40.122;18.318;2022-10-15T06:11:28;29.80;38.70
52739;DHT22;52466;40.122;18.318;2022-10-15T06:14:36;29.40;39.80
52739;DHT22;52466;40.122;18.318;2022-10-15T06:17:43;31.80;35.50
52739;DHT22;52466;40.122;18.318;2022-10-15T06:20:52;30.80;36.20
52739;DHT22;52466;40.122;18.318;2022-10-15T06:23:59;31.60;35.00
52739;DHT22;52466;40.122;18.318;2022-10-15T06:27:07;32.40;33.00
52739;DHT22;52466;40.122;18.318;2022-10-15T06:30:16;32.30;33.50
52739;DHT22;52466;40.122;18.318;2022-10-15T06:33:24;32.60;33.00
52739;DHT22;52466;40.122;18.318;2022-10-15T06:36:31;33.40;31.60
52739;DHT22;52466;40.122;18.318;2022-10-15T06:39:39;33.90;30.80
52739;DHT22;52466;40.122;18.318;2022-10-15T06:42:47;34.20;30.40
52739;DHT22;52466;40.122;18.318;2022-10-15T06:45:58;35.20;29.50
52739;DHT22;52466;40.122;18.318;2022-10-15T06:49:05;34.90;29.50
52739;DHT22;52466;40.122;18.318;2022-10-15T06:52:17;35.10;29.50
52739;DHT22;52466;40.122;18.318;2022-10-15T06:55:25;35.60;28.60
52739;DHT22;52466;40.122;18.318;2022-10-15T06:58:32;37.00;27.60
52739;DHT22;52466;40.122;18.318;2022-10-15T07:01:40;36.10;28.60
52739;DHT22;52466;40.122;18.318;2022-10-15T07:04:48;37.10;27.80
52739;DHT22;52466;40.122;18.318;2022-10-15T07:07:57;35.80;28.60
52739;DHT22;52466;40.122;18.318;2022-10-15T07:11:07;35.40;28.60
52739;DHT22;52466;40.122;18.318;2022-10-15T07:14:15;35.80;28.00
52739;DHT22;52466;40.122;18.318;2022-10-15T07:17:23;35.10;28.30
52739;DHT22;52466;40.122;18.318;2022-10-15T07:20:31;34.00;29.30
52739;DHT22;52466;40.122;18.318;2022-10-15T07:23:38;31.20;32.90
52739;DHT22;52466;40.122;18.318;2022-10-15T07:26:46;25.50;44.20
52739;DHT22;52466;40.122;18.318;2022-10-15T07:29:54;24.40;46.50
52739;DHT22;52466;40.122;18.318;2022-10-15T07:33:02;24.20;48.40
52739;DHT22;52466;40.122;18.318;2022-10-15T07:36:11;24.30;47.30
52739;DHT22;52466;40.122;18.318;2022-10-15T07:39:21;23.90;49.00
52739;DHT22;52466;40.122;18.318;2022-10-15T07:42:29;24.50;48.50
52739;DHT22;52466;40.122;18.318;2022-10-15T07:45:36;24.10;47.20
52739;DHT22;52466;40.122;18.318;2022-10-15T07:48:44;23.90;47.30
52739;DHT22;52466;40.122;18.318;2022-10-15T07:51:52;23.70;48.00
52739;DHT22;52466;40.122;18.318;2022-10-15T07:54:59;22.90;46.30
52739;DHT22;52466;40.122;18.318;2022-10-15T07:58:07;22.80;47.50
52739;DHT22;52466;40.122;18.318;2022-10-15T08:01:15;22.90;47.20
52739;DHT22;52466;40.122;18.318;2022-10-15T08:04:22;23.10;48.50
52739;DHT22;52466;40.122;18.318;2022-10-15T08:07:30;22.50;50.30
52739;DHT22;52466;40.122;18.318;2022-10-15T08:10:45;22.70;50.90
52739;DHT22;52466;40.122;18.318;2022-10-15T08:13:53;22.40;50.10
52739;DHT22;52466;40.122;18.318;2022-10-15T08:17:04;22.40;51.20
52739;DHT22;52466;40.122;18.318;2022-10-15T08:20:12;21.70;52.30
52739;DHT22;52466;40.122;18.318;2022-10-15T08:23:20;22.00;53.00
52739;DHT22;52466;40.122;18.318;2022-10-15T08:26:27;21.50;53.10
52739;DHT22;52466;40.122;18.318;2022-10-15T08:29:35;21.40;54.80
52739;DHT22;52466;40.122;18.318;2022-10-15T08:32:43;22.00;54.00
52739;DHT22;52466;40.122;18.318;2022-10-15T08:35:51;21.80;55.10
52739;DHT22;52466;40.122;18.318;2022-10-15T08:38:59;22.00;54.50
52739;DHT22;52466;40.122;18.318;2022-10-15T08:42:19;22.00;54.40
52739;DHT22;52466;40.122;18.318;2022-10-15T08:45:31;21.80;54.20
52739;DHT22;52466;40.122;18.318;2022-10-15T08:48:46;21.80;54.50
52739;DHT22;52466;40.122;18.318;2022-10-15T08:52:05;21.90;53.50
52739;DHT22;52466;40.122;18.318;2022-10-15T08:55:17;22.00;53.60
52739;DHT22;52466;40.122;18.318;2022-10-15T08:58:28;21.90;53.60
52739;DHT22;52466;40.122;18.318;2022-10-15T09:02:01;21.70;55.70
52739;DHT22;52466;40.122;18.318;2022-10-15T09:09:16;22.10;53.10
52739;DHT22;52466;40.122;18.318;2022-10-15T09:15:36;22.20;53.80
52739;DHT22;52466;40.122;18.318;2022-10-15T09:18:49;21.90;54.00
52739;DHT22;52466;40.122;18.318;2022-10-15T09:22:00;21.60;55.20
52739;DHT22;52466;40.122;18.318;2022-10-15T09:25:16;21.70;54.30
52739;DHT22;52466;40.122;18.318;2022-10-15T09:28:30;21.80;53.80
52739;DHT22;52466;40.122;18.318;2022-10-15T09:31:53;21.70;53.10
52739;DHT22;52466;40.122;18.318;2022-10-15T09:38:46;21.90;54.20
52739;DHT22;52466;40.122;18.318;2022-10-15T09:45:16;21.80;55.00
52739;DHT22;52466;40.122;18.318;2022-10-15T09:48:24;22.00;54.60
52739;DHT22;52466;40.122;18.318;2022-10-15T09:58:43;22.00;54.10
52739;DHT22;52466;40.122;18.318;2022-10-15T10:02:16;22.00;53.00
52739;DHT22;52466;40.122;18.318;2022-10-15T10:05:30;21.90;53.60
52739;DHT22;52466;40.122;18.318;2022-10-15T10:08:58;21.60;55.00
52739;DHT22;52466;40.122;18.318;2022-10-15T10:12:17;22.00;54.50
52739;DHT22;52466;40.122;18.318;2022-10-15T10:15:37;21.80;54.20
52739;DHT22;52466;40.122;18.318;2022-10-15T10:19:14;21.60;53.40
52739;DHT22;52466;40.122;18.318;2022-10-15T10:22:22;22.00;53.70
52739;DHT22;52466;40.122;18.318;2022-10-15T10:25:41;22.10;51.50
52739;DHT22;52466;40.122;18.318;2022-10-15T10:28:52;22.00;51.80
52739;DHT22;52466;40.122;18.318;2022-10-15T10:32:10;21.80;52.60
52739;DHT22;52466;40.122;18.318;2022-10-15T10:35:23;22.00;53.30
52739;DHT22;52466;40.122;18.318;2022-10-15T10:41:58;21.90;53.50
52739;DHT22;52466;40.122;18.318;2022-10-15T10:45:21;21.80;53.90
52739;DHT22;52466;40.122;18.318;2022-10-15T10:48:41;22.00;54.40
52739;DHT22;52466;40.122;18.318;2022-10-15T10:51:49;21.90;54.30
52739;DHT22;52466;40.122;18.318;2022-10-15T10:55:10;22.20;52.80
52739;DHT22;52466;40.122;18.318;2022-10-15T10:58:21;21.90;52.70
52739;DHT22;52466;40.122;18.318;2022-10-15T11:01:29;22.00;53.70
52739;DHT22;52466;40.122;18.318;2022-10-15T11:04:39;21.60;55.30
52739;DHT22;52466;40.122;18.318;2022-10-15T11:18:55;21.60;54.40
52739;DHT22;52466;40.122;18.318;2022-10-15T11:29:06;22.00;53.70
52739;DHT22;52466;40.122;18.318;2022-10-15T11:35:48;21.80;53.20
52739;DHT22;52466;40.122;18.318;2022-10-15T11:43:10;21.80;53.20
52739;DHT22;52466;40.122;18.318;2022-10-15T11:46:26;21.80;52.80
52739;DHT22;52466;40.122;18.318;2022-10-15T11:49:45;21.60;53.20
52739;DHT22;52466;40.122;18.318;2022-10-15T11:56:31;21.50;52.50
52739;DHT22;52466;40.122;18.318;2022-10-15T12:00:00;21.60;52.60
52739;DHT22;52466;40.122;18.318;2022-10-15T12:03:16;21.80;53.40
52739;DHT22;52466;40.122;18.318;2022-10-15T12:06:28;21.60;52.40
52739;DHT22;52466;40.122;18.318;2022-10-15T12:09:39;21.70;53.90
52739;DHT22;52466;40.122;18.318;2022-10-15T12:19:24;21.40;53.90
52739;DHT22;52466;40.122;18.318;2022-10-15T12:25:53;21.60;54.40
52739;DHT22;52466;40.122;18.318;2022-10-15T12:29:17;21.60;53.70
52739;DHT22;52466;40.122;18.318;2022-10-15T12:32:41;21.50;53.50
52739;DHT22;52466;40.122;18.318;2022-10-15T12:35:58;21.30;53.10
52739;DHT22;52466;40.122;18.318;2022-10-15T12:39:22;21.50;53.90
52739;DHT22;52466;40.122;18.318;2022-10-15T12:45:49;21.40;54.10
52739;DHT22;52466;40.122;18.318;2022-10-15T12:48:57;21.40;53.20
52739;DHT22;52466;40.122;18.318;2022-10-15T12:56:24;21.10;52.80
52739;DHT22;52466;40.122;18.318;2022-10-15T13:02:53;21.30;51.90
52739;DHT22;52466;40.122;18.318;2022-10-15T13:09:29;21.30;51.80
52739;DHT22;52466;40.122;18.318;2022-10-15T13:12:38;21.10;48.90
52739;DHT22;52466;40.122;18.318;2022-10-15T13:15:58;21.10;51.00
52739;DHT22;52466;40.122;18.318;2022-10-15T13:19:16;21.30;49.70
52739;DHT22;52466;40.122;18.318;2022-10-15T13:22:30;21.10;47.60
52739;DHT22;52466;40.122;18.318;2022-10-15T13:25:42;20.90;48.60
52739;DHT22;52466;40.122;18.318;2022-10-15T13:28:51;21.00;49.60
52739;DHT22;52466;40.122;18.318;2022-10-15T13:32:01;21.00;49.10
52739;DHT22;52466;40.122;18.318;2022-10-15T13:35:11;20.80;52.00
52739;DHT22;52466;40.122;18.318;2022-10-15T13:38:24;20.80;52.70
52739;DHT22;52466;40.122;18.318;2022-10-15T13:41:37;21.00;53.00
52739;DHT22;52466;40.122;18.318;2022-10-15T13:48:09;20.80;51.80
52739;DHT22;52466;40.122;18.318;2022-10-15T13:51:18;20.80;51.30
52739;DHT22;52466;40.122;18.318;2022-10-15T13:54:28;20.80;51.30
52739;DHT22;52466;40.122;18.318;2022-10-15T13:57:43;20.90;52.80
52739;DHT22;52466;40.122;18.318;2022-10-15T14:01:15;20.90;53.10
52739;DHT22;52466;40.122;18.318;2022-10-15T14:04:23;20.70;54.00
52739;DHT22;52466;40.122;18.318;2022-10-15T14:07:31;20.70;55.00
52739;DHT22;52466;40.122;18.318;2022-10-15T14:10:38;20.80;55.40
52739;DHT22;52466;40.122;18.318;2022-10-15T14:13:54;20.60;56.20
52739;DHT22;52466;40.122;18.318;2022-10-15T14:17:07;20.50;56.00
52739;DHT22;52466;40.122;18.318;2022-10-15T14:20:19;20.50;56.10
52739;DHT22;52466;40.122;18.318;2022-10-15T14:23:28;20.40;55.30
52739;DHT22;52466;40.122;18.318;2022-10-15T14:26:36;20.40;55.00
52739;DHT22;52466;40.122;18.318;2022-10-15T14:29:48;20.20;54.40
52739;DHT22;52466;40.122;18.318;2022-10-15T14:32:56;20.10;53.80
52739;DHT22;52466;40.122;18.318;2022-10-15T14:42:40;20.10;54.50
52739;DHT22;52466;40.122;18.318;2022-10-15T14:48:59;20.00;58.40
52739;DHT22;52466;40.122;18.318;2022-10-15T14:52:12;19.90;59.50
52739;DHT22;52466;40.122;18.318;2022-10-15T14:55:31;19.70;60.70
52739;DHT22;52466;40.122;18.318;2022-10-15T14:58:46;19.80;61.50
52739;DHT22;52466;40.122;18.318;2022-10-15T15:01:59;19.60;61.90
52739;DHT22;52466;40.122;18.318;2022-10-15T15:08:19;19.60;63.10
52739;DHT22;52466;40.122;18.318;2022-10-15T15:11:27;19.50;63.00
52739;DHT22;52466;40.122;18.318;2022-10-15T15:14:34;19.50;64.00
52739;DHT22;52466;40.122;18.318;2022-10-15T15:17:42;19.30;64.10
52739;DHT22;52466;40.122;18.318;2022-10-15T15:20:50;19.30;65.40
52739;DHT22;52466;40.122;18.318;2022-10-15T15:23:59;19.20;66.00
52739;DHT22;52466;40.122;18.318;2022-10-15T15:27:08;19.20;66.20
52739;DHT22;52466;40.122;18.318;2022-10-15T15:30:23;19.10;66.80
52739;DHT22;52466;40.122;18.318;2022-10-15T15:33:32;19.10;67.80
52739;DHT22;52466;40.122;18.318;2022-10-15T15:36:39;19.00;68.20
52739;DHT22;52466;40.122;18.318;2022-10-15T15:39:48;19.00;68.80
52739;DHT22;52466;40.122;18.318;2022-10-15T15:42:56;18.70;69.10
52739;DHT22;52466;40.122;18.318;2022-10-15T15:46:05;18.70;69.10
52739;DHT22;52466;40.122;18.318;2022-10-15T15:49:12;18.70;68.90
52739;DHT22;52466;40.122;18.318;2022-10-15T15:52:20;18.70;69.30
52739;DHT22;52466;40.122;18.318;2022-10-15T15:55:28;18.60;69.40
52739;DHT22;52466;40.122;18.318;2022-10-15T15:58:35;18.50;70.00
52739;DHT22;52466;40.122;18.318;2022-10-15T16:01:43;18.40;70.30
52739;DHT22;52466;40.122;18.318;2022-10-15T16:04:51;18.30;70.70
52739;DHT22;52466;40.122;18.318;2022-10-15T16:07:59;18.20;70.50
52739;DHT22;52466;40.122;18.318;2022-10-15T16:11:06;18.20;70.80
52739;DHT22;52466;40.122;18.318;2022-10-15T16:14:14;18.10;71.20
52739;DHT22;52466;40.122;18.318;2022-10-15T16:17:22;18.10;71.70
52739;DHT22;52466;40.122;18.318;2022-10-15T16:20:30;18.00;72.10
52739;DHT22;52466;40.122;18.318;2022-10-15T16:23:38;18.00;72.40
52739;DHT22;52466;40.122;18.318;2022-10-15T16:26:47;17.80;72.80
52739;DHT22;52466;40.122;18.318;2022-10-15T16:29:54;17.70;72.70
52739;DHT22;52466;40.122;18.318;2022-10-15T16:33:02;17.60;72.40
52739;DHT22;52466;40.122;18.318;2022-10-15T16:36:10;17.60;72.40
52739;DHT22;52466;40.122;18.318;2022-10-15T16:39:18;17.60;72.30
52739;DHT22;52466;40.122;18.318;2022-10-15T16:42:25;17.60;72.00
52739;DHT22;52466;40.122;18.318;2022-10-15T16:45:34;17.60;72.00
52739;DHT22;52466;40.122;18.318;2022-10-15T16:48:42;17.50;72.00
52739;DHT22;52466;40.122;18.318;2022-10-15T16:51:49;17.50;72.40
52739;DHT22;52466;40.122;18.318;2022-10-15T16:54:57;17.50;72.20
52739;DHT22;52466;40.122;18.318;2022-10-15T16:58:05;17.40;72.40
52739;DHT22;52466;40.122;18.318;2022-10-15T17:01:22;17.30;72.80
52739;DHT22;52466;40.122;18.318;2022-10-15T17:04:30;17.30;72.90
52739;DHT22;52466;40.122;18.318;2022-10-15T17:07:40;17.30;72.90
52739;DHT22;52466;40.122;18.318;2022-10-15T17:10:48;17.30;72.80
52739;DHT22;52466;40.122;18.318;2022-10-15T17:13:58;17.30;72.60
52739;DHT22;52466;40.122;18.318;2022-10-15T17:17:06;17.20;73.30
52739;DHT22;52466;40.122;18.318;2022-10-15T17:20:14;17.10;73.70
52739;DHT22;52466;40.122;18.318;2022-10-15T17:23:21;17.10;73.80
52739;DHT22;52466;40.122;18.318;2022-10-15T17:26:32;17.00;73.90
52739;DHT22;52466;40.122;18.318;2022-10-15T17:29:42;17.00;73.90
52739;DHT22;52466;40.122;18.318;2022-10-15T17:32:51;17.00;73.80
52739;DHT22;52466;40.122;18.318;2022-10-15T17:36:06;17.10;73.50
52739;DHT22;52466;40.122;18.318;2022-10-15T17:39:17;17.10;73.50
52739;DHT22;52466;40.122;18.318;2022-10-15T17:42:25;17.00;73.60
52739;DHT22;52466;40.122;18.318;2022-10-15T17:45:32;17.10;73.50
52739;DHT22;52466;40.122;18.318;2022-10-15T17:48:41;17.10;73.50
52739;DHT22;52466;40.122;18.318;2022-10-15T17:51:49;17.00;74.10
52739;DHT22;52466;40.122;18.318;2022-10-15T17:54:57;17.00;74.30
52739;DHT22;52466;40.122;18.318;2022-10-15T17:58:05;16.90;74.40
52739;DHT22;52466;40.122;18.318;2022-10-15T18:01:16;16.90;74.70
52739;DHT22;52466;40.122;18.318;2022-10-15T18:04:23;16.80;75.20
52739;DHT22;52466;40.122;18.318;2022-10-15T18:07:31;16.80;75.20
52739;DHT22;52466;40.122;18.318;2022-10-15T18:10:39;16.80;75.50
52739;DHT22;52466;40.122;18.318;2022-10-15T18:13:47;16.80;75.80
52739;DHT22;52466;40.122;18.318;2022-10-15T18:16:55;16.70;76.10
52739;DHT22;52466;40.122;18.318;2022-10-15T18:20:03;16.60;76.40
52739;DHT22;52466;40.122;18.318;2022-10-15T18:23:11;16.60;76.80
52739;DHT22;52466;40.122;18.318;2022-10-15T18:26:20;16.60;76.90
52739;DHT22;52466;40.122;18.318;2022-10-15T18:29:28;16.60;76.90
52739;DHT22;52466;40.122;18.318;2022-10-15T18:32:37;16.50;77.30
52739;DHT22;52466;40.122;18.318;2022-10-15T18:35:44;16.40;78.00
52739;DHT22;52466;40.122;18.318;2022-10-15T18:38:53;16.40;78.10
52739;DHT22;52466;40.122;18.318;2022-10-15T18:42:02;16.50;78.10
52739;DHT22;52466;40.122;18.318;2022-10-15T18:45:10;16.40;78.10
52739;DHT22;52466;40.122;18.318;2022-10-15T18:48:18;16.30;78.60
52739;DHT22;52466;40.122;18.318;2022-10-15T18:51:27;16.40;78.60
52739;DHT22;52466;40.122;18.318;2022-10-15T18:54:35;16.30;79.10
52739;DHT22;52466;40.122;18.318;2022-10-15T18:57:44;16.20;79.80
52739;DHT22;52466;40.122;18.318;2022-10-15T19:00:53;16.10;80.30
52739;DHT22;52466;40.122;18.318;2022-10-15T19:03:57;16.10;80.80
52739;DHT22;52466;40.122;18.318;2022-10-15T19:07:05;16.10;80.50
52739;DHT22;52466;40.122;18.318;2022-10-15T19:10:13;16.00;81.50
52739;DHT22;52466;40.122;18.318;2022-10-15T19:13:21;15.80;81.90
52739;DHT22;52466;40.122;18.318;2022-10-15T19:16:29;15.80;82.20
52739;DHT22;52466;40.122;18.318;2022-10-15T19:19:37;15.60;83.00
52739;DHT22;52466;40.122;18.318;2022-10-15T19:22:45;15.40;83.70
52739;DHT22;52466;40.122;18.318;2022-10-15T19:25:53;15.60;83.40
52739;DHT22;52466;40.122;18.318;2022-10-15T19:29:01;15.40;83.80
52739;DHT22;52466;40.122;18.318;2022-10-15T19:32:09;15.50;83.70
52739;DHT22;52466;40.122;18.318;2022-10-15T19:35:17;15.30;84.30
52739;DHT22;52466;40.122;18.318;2022-10-15T19:38:27;15.10;84.70
52739;DHT22;52466;40.122;18.318;2022-10-15T19:41:36;15.20;84.30
52739;DHT22;52466;40.122;18.318;2022-10-15T19:44:44;15.30;84.30
52739;DHT22;52466;40.122;18.318;2022-10-15T19:47:52;15.30;84.00
52739;DHT22;52466;40.122;18.318;2022-10-15T19:51:00;15.30;84.60
52739;DHT22;52466;40.122;18.318;2022-10-15T19:54:08;15.10;85.30
52739;DHT22;52466;40.122;18.318;2022-10-15T19:57:16;15.40;85.10
52739;DHT22;52466;40.122;18.318;2022-10-15T20:00:24;15.40;85.00
52739;DHT22;52466;40.122;18.318;2022-10-15T20:03:32;15.40;85.00
52739;DHT22;52466;40.122;18.318;2022-10-15T20:06:40;15.40;85.00
52739;DHT22;52466;40.122;18.318;2022-10-15T20:09:48;15.30;84.90
52739;DHT22;52466;40.122;18.318;2022-10-15T20:12:55;15.10;85.30
52739;DHT22;52466;40.122;18.318;2022-10-15T20:16:06;15.10;85.20
52739;DHT22;52466;40.122;18.318;2022-10-15T20:19:15;15.10;85.80
52739;DHT22;52466;40.122;18.318;2022-10-15T20:22:23;15.10;86.10
52739;DHT22;52466;40.122;18.318;2022-10-15T20:25:30;15.00;85.80
52739;DHT22;52466;40.122;18.318;2022-10-15T20:28:40;14.80;86.50
52739;DHT22;52466;40.122;18.318;2022-10-15T20:31:48;14.90;86.50
52739;DHT22;52466;40.122;18.318;2022-10-15T20:34:57;15.00;86.10
52739;DHT22;52466;40.122;18.318;2022-10-15T20:38:06;14.80;86.30
52739;DHT22;52466;40.122;18.318;2022-10-15T20:41:15;14.70;86.00
52739;DHT22;52466;40.122;18.318;2022-10-15T20:44:23;14.80;86.90
52739;DHT22;52466;40.122;18.318;2022-10-15T20:47:32;14.80;86.70
52739;DHT22;52466;40.122;18.318;2022-10-15T20:50:41;14.70;87.00
52739;DHT22;52466;40.122;18.318;2022-10-15T20:53:48;14.60;87.50
52739;DHT22;52466;40.122;18.318;2022-10-15T20:56:57;14.50;87.60
52739;DHT22;52466;40.122;18.318;2022-10-15T21:00:06;14.60;87.80
52739;DHT22;52466;40.122;18.318;2022-10-15T21:03:15;14.60;87.40
52739;DHT22;52466;40.122;18.318;2022-10-15T21:06:22;14.60;87.30
52739;DHT22;52466;40.122;18.318;2022-10-15T21:09:30;14.60;87.20
52739;DHT22;52466;40.122;18.318;2022-10-15T21:12:38;14.60;87.00
52739;DHT22;52466;40.122;18.318;2022-10-15T21:15:46;14.60;87.20
52739;DHT22;52466;40.122;18.318;2022-10-15T21:18:53;14.60;87.40
52739;DHT22;52466;40.122;18.318;2022-10-15T21:22:01;14.60;87.80
52739;DHT22;52466;40.122;18.318;2022-10-15T21:25:09;14.70;87.80
52739;DHT22;52466;40.122;18.318;2022-10-15T21:28:17;14.80;87.70
52739;DHT22;52466;40.122;18.318;2022-10-15T21:31:26;14.70;87.60
52739;DHT22;52466;40.122;18.318;2022-10-15T21:34:34;14.70;87.40
52739;DHT22;52466;40.122;18.318;2022-10-15T21:37:42;14.50;87.90